• Join FlightAware (Why Join?)
  • Login
  • US Flag 
05:47PM EDT


 

Airport Tracker/Info


-or-


 

Live Flight TrackerFlight Track Log ✈ N89UM ✈ 13-May-2013 ✈ KPLR - KFMY

Flight Track Log - Related Links

Times and Time Zones

All times are in EDT time to prevent confusion due to time zone crossing. See the N89UM flight status page for this flight to view local times or setup timezone preferences in your user account.

Time Position Orientation Groundspeed Altitude Reporting Facility
EDT Latitude Longitude Course Direction KTS MPH feet Rate Location/Type
12:32PM 33.4958 -86.1811 116° Southeast 170 196 4,500  Level Atlanta Center
12:33PM 33.4567 -86.1578 154° Southeast 148 170 5,000 360 Climbing Atlanta Center
12:34PM 33.4153 -86.1392 159° South 162 186 5,300 540 Climbing Atlanta Center
12:35PM 33.3950 -86.1039 125° Southeast 152 175 6,100 780 Climbing Atlanta Center
12:36PM 33.3385 -86.0987 121° Southeast  Level Estimated
12:36PM 33.3833 -86.0589 107° East 136 157 6,900  Level Atlanta Center
12:37PM 33.3017 -86.0737 116° Southeast  Level Estimated
12:37PM 33.3672 -86.0161 114° Southeast 129 148 7,700  Level Atlanta Center
12:38PM 33.3511 -85.9786 117° Southeast 129 148 8,300 600 Climbing Atlanta Center
12:39PM 33.3331 -85.9308 114° Southeast 137 158 8,900 600 Climbing Atlanta Center
12:40PM 33.3169 -85.8883 114° Southeast 137 158 9,500 540 Climbing Atlanta Center
12:41PM 33.3008 -85.8483 116° Southeast 137 158 10,000 540 Climbing Atlanta Center
12:42PM 33.2828 -85.8031 115° Southeast 137 158 10,600 480 Climbing Atlanta Center
12:43PM 33.2647 -85.7581 116° Southeast 137 158 11,000 180 Climbing Atlanta Center
12:44PM 33.2339 -85.7200 134° Southeast 143 165 11,000 -60 Level Atlanta Center
12:45PM 33.1883 -85.6894 151° Southeast 165 190 10,900  Descending Atlanta Center
12:46PM 33.1450 -85.6439 139° Southeast 190 219 11,000 60 Climbing Atlanta Center
12:47PM 33.1017 -85.6061 144° Southeast 195 224 11,100  Climbing Atlanta Center
12:48PM 33.0606 -85.5681 142° Southeast 195 224 11,000 -120 Descending Atlanta Center
12:49PM 33.0172 -85.5278 142° Southeast 195 224 10,900 -60 Descending Atlanta Center
12:50PM 32.9739 -85.4872 142° Southeast 195 224 10,900  Level Atlanta Center
12:51PM 32.9303 -85.4494 144° Southeast 195 224 10,900  Level Atlanta Center
12:52PM 32.8892 -85.4092 141° Southeast 195 224 10,900  Level Atlanta Center
12:53PM 32.8458 -85.3692 142° Southeast 200 230 10,900  Level Atlanta Center
12:54PM 32.8022 -85.3289 142° Southeast 200 230 10,900  Level Atlanta Center
12:55PM 32.7608 -85.2911 142° Southeast 200 230 10,900  Level Atlanta Center
12:56PM 32.7156 -85.2511 143° Southeast 200 230 10,900  Level Atlanta Center
12:57PM 32.6742 -85.2133 142° Southeast 200 230 10,900  Level Atlanta Center
12:58PM 32.6286 -85.1708 142° Southeast 200 230 10,900  Level Atlanta Center
12:59PM 32.5872 -85.1333 143° Southeast 200 230 10,900  Level Atlanta Center
01:00PM 32.5436 -85.0933 142° Southeast 200 230 10,900  Level Atlanta Center
01:01PM 32.5022 -85.0586 145° Southeast 200 230 10,900  Level Atlanta Center
01:02PM 32.4586 -85.0186 142° Southeast 200 230 10,900  Level Atlanta Center
01:03PM 32.4172 -84.9789 141° Southeast 200 230 10,900  Level Atlanta Center
01:04PM 32.3736 -84.9389 142° Southeast 200 230 10,900  Level Atlanta Center
01:07PM 32.2767 -84.8533 143° Southeast 199 229 10,900 -60 Level Jacksonville Center
01:08PM 32.2333 -84.8156 144° Southeast 199 229 10,800  Descending Jacksonville Center
01:09PM 32.1922 -84.7756 141° Southeast 199 229 10,900  Climbing Jacksonville Center
01:10PM 32.1469 -84.7353 143° Southeast 199 229 10,900  Level Jacksonville Center
01:11PM 32.1014 -84.6975 145° Southeast 199 229 10,900  Level Jacksonville Center
01:12PM 32.0622 -84.6600 141° Southeast 199 229 10,900  Level Jacksonville Center
01:13PM 32.0108 -84.6175 145° Southeast 199 229 10,900  Level Jacksonville Center
01:14PM 31.9778 -84.5850 140° Southeast 199 229 11,000  Climbing Jacksonville Center
01:15PM 31.9325 -84.5450 143° Southeast 177 204 10,900 -60 Descending Jacksonville Center
01:16PM 31.8869 -84.5050 143° Southeast 195 224 10,900 -60 Level Jacksonville Center
01:17PM 31.8436 -84.4675 144° Southeast 195 224 10,800  Descending Jacksonville Center
01:18PM 31.8003 -84.4278 142° Southeast 195 224 10,900  Climbing Jacksonville Center
01:19PM 31.7589 -84.3881 141° Southeast 195 224 10,900  Level Jacksonville Center
01:20PM 31.7133 -84.3506 145° Southeast 195 224 10,900  Level Jacksonville Center
01:21PM 31.6722 -84.3083 139° Southeast 195 224 11,000  Climbing Jacksonville Center
01:22PM 31.6222 -84.2808 155° Southeast 200 230 10,900 -60 Descending Jacksonville Center
01:23PM 31.5725 -84.2606 161° South 195 224 10,900  Level Jacksonville Center
01:24PM 31.5247 -84.2356 156° South 190 219 10,900  Level Jacksonville Center
01:25PM 31.4747 -84.2128 159° South 190 219 10,900  Level Jacksonville Center
01:26PM 31.4250 -84.1903 159° South 190 219 10,900  Level Jacksonville Center
01:27PM 31.3772 -84.1678 158° South 190 219 10,900  Level Jacksonville Center
01:28PM 31.3294 -84.1428 156° South 190 219 10,900  Level Jacksonville Center
01:29PM 31.2794 -84.1203 159° South 190 219 10,900  Level Jacksonville Center
01:30PM 31.2297 -84.0953 157° South 195 224 10,900  Level Jacksonville Center
01:31PM 31.1797 -84.0728 159° South 195 224 10,900  Level Jacksonville Center
01:32PM 31.1319 -84.0478 156° South 190 219 10,900  Level Jacksonville Center
01:33PM 31.0819 -84.0256 159° South 190 219 10,900  Level Jacksonville Center
01:34PM 31.0342 -84.0056 160° South 190 219 10,900  Level Jacksonville Center
01:35PM 30.9842 -83.9806 157° South 190 219 10,900  Level Jacksonville Center
01:36PM 30.9344 -83.9606 161° South 190 219 10,900  Level Jacksonville Center
01:37PM 30.8844 -83.9358 157° South 190 219 10,900  Level Jacksonville Center
01:38PM 30.8325 -83.9161 162° South 190 219 10,900  Level Jacksonville Center
01:39PM 30.7844 -83.8914 156° South 190 219 10,900  Level Jacksonville Center
01:40PM 30.7347 -83.8667 157° South 190 219 10,900  Level Jacksonville Center
01:41PM 30.6825 -83.8442 160° South 190 219 10,900  Level Jacksonville Center
01:42PM 30.6347 -83.8197 156° South 190 219 10,900  Level Jacksonville Center
01:43PM 30.5828 -83.7975 160° South 190 219 10,900  Level Jacksonville Center
01:44PM 30.5350 -83.7706 154° Southeast 190 219 10,900  Level Jacksonville Center
01:45PM 30.4892 -83.7364 147° Southeast 190 219 10,900  Level Jacksonville Center
01:46PM 30.4456 -83.7022 146° Southeast 195 224 10,900  Level Jacksonville Center
01:47PM 30.4019 -83.6681 146° Southeast 195 224 10,900  Level Jacksonville Center
01:48PM 30.3583 -83.6342 146° Southeast 190 219 10,900  Level Jacksonville Center
01:49PM 30.3147 -83.6000 146° Southeast 190 219 10,900  Level Jacksonville Center
01:50PM 30.2689 -83.5636 146° Southeast 190 219 10,900  Level Jacksonville Center
01:51PM 30.2231 -83.5297 147° Southeast 190 219 10,900  Level Jacksonville Center
01:52PM 30.1794 -83.4956 146° Southeast 190 219 10,900  Level Jacksonville Center
01:53PM 30.1317 -83.4594 147° Southeast 195 224 10,900  Level Jacksonville Center
01:54PM 30.0858 -83.4231 146° Southeast 195 224 10,900  Level Jacksonville Center
01:55PM 30.0422 -83.3892 146° Southeast 190 219 10,900  Level Jacksonville Center
01:56PM 29.9964 -83.3556 148° Southeast 190 219 10,900  Level Jacksonville Center
01:57PM 29.9506 -83.3192 145° Southeast 190 219 10,900  Level Jacksonville Center
01:58PM 29.9047 -83.2856 148° Southeast 190 219 10,900  Level Jacksonville Center
01:59PM 29.8611 -83.2494 144° Southeast 190 219 10,900  Level Jacksonville Center
02:00PM 29.8153 -83.2133 146° Southeast 197 227 10,900  Level Jacksonville Center
02:01PM 29.7714 -83.1822 148° Southeast 192 221 10,900  Level Jacksonville Center
02:02PM 29.7275 -83.1461 144° Southeast 187 215 10,900  Level Jacksonville Center
02:03PM 29.6817 -83.1125 147° Southeast 193 222 10,900  Level Jacksonville Center
02:04PM 29.6381 -83.0789 146° Southeast 193 222 10,900  Level Jacksonville Center
02:05PM 29.5919 -83.0456 148° Southeast 188 216 10,900  Level Jacksonville Center
02:06PM 29.5461 -83.0167 151° Southeast 187 215 10,900  Level Jacksonville Center
02:07PM 29.5003 -82.9881 151° Southeast 187 215 10,900  Level Jacksonville Center
02:08PM 29.4522 -82.9544 149° Southeast 187 215 10,900  Level Jacksonville Center
02:09PM 29.4083 -82.9258 150° Southeast 187 215 10,900  Level Jacksonville Center
02:10PM 29.3564 -82.8925 151° Southeast 187 215 10,900  Level Jacksonville Center
02:11PM 29.3103 -82.8617 150° Southeast 192 221 11,000  Climbing Jacksonville Center
02:12PM 29.2644 -82.8331 151° Southeast 192 221 11,000 -120 Level Jacksonville Center
02:12PM 29.2414 -82.8189 152° Southeast 185 213 10,900  Descending Jacksonville Center
02:13PM 29.2183 -82.8022 148° Southeast 192 221 11,000  Climbing Jacksonville Center
02:13PM 29.1872 -82.7856 155° Southeast 189 217 10,900 -240 Descending Jacksonville Center
02:14PM 29.1725 -82.7736 145° Southeast 187 215 10,800 -300 Descending Jacksonville Center
02:14PM 29.1392 -82.7572 157° South 193 222 10,600 -420 Descending Jacksonville Center
02:15PM 29.1244 -82.7428 139° Southeast 187 215 10,400 -300 Descending Jacksonville Center
02:15PM 29.0931 -82.7239 152° Southeast 209 241 10,300 -300 Descending Jacksonville Center
02:16PM 29.0764 -82.7097 143° Southeast 192 221 10,100 -420 Descending Jacksonville Center
02:16PM 29.0431 -82.6883 151° Southeast 206 237 9,900 -300 Descending Jacksonville Center
02:17PM 29.0264 -82.6789 154° Southeast 197 227 9,800 -300 Descending Jacksonville Center
02:17PM 28.9886 -82.6575 154° Southeast 201 231 9,600 -300 Descending Jacksonville Center
02:18PM 28.9783 -82.6458 135° Southeast 197 227 9,500 -240 Descending Jacksonville Center
02:18PM 28.9469 -82.6292 155° Southeast 198 228 9,400 -300 Descending Jacksonville Center
02:19PM 28.9303 -82.6175 149° Southeast 197 227 9,200 -420 Descending Jacksonville Center
02:19PM 28.8989 -82.5986 152° Southeast 190 219 9,000 -240 Descending Jacksonville Center
02:20PM 28.8842 -82.5844 140° Southeast 202 232 9,000  Level Jacksonville Center
02:20PM 28.8528 -82.5678 155° Southeast 192 221 9,000  Level Jacksonville Center
02:21PM 28.8381 -82.5583 151° Southeast 197 227 9,000  Level Jacksonville Center
02:22PM 28.7942 -82.5300 150° Southeast 192 221 9,000  Level Jacksonville Center
02:24PM 28.7000 -82.4667 149° Southeast 181 208 9,000  Level Tampa TRACON
02:25PM 28.6500 -82.4333 150° Southeast 181 208 9,000  Level Tampa TRACON
02:26PM 28.6000 -82.4167 164° South 180 207 9,000  Level Tampa TRACON
02:27PM 28.5667 -82.3833 139° Southeast 182 209 9,000  Level Tampa TRACON
02:28PM 28.5167 -82.3500 150° Southeast 181 208 9,000  Level Tampa TRACON
02:29PM 28.4667 -82.3167 150° Southeast 180 207 9,000  Level Tampa TRACON
02:30PM 28.4167 -82.3000 164° South 181 208 9,000  Level Tampa TRACON
02:31PM 28.3833 -82.2667 139° Southeast 183 211 9,000  Level Tampa TRACON
02:32PM 28.3333 -82.2500 164° South 174 200 9,000  Level Tampa TRACON
02:33PM 28.2833 -82.2500 180° South 170 196 9,000  Level Tampa TRACON
02:34PM 28.2333 -82.2333 164° South 168 193 9,000  Level Tampa TRACON
02:35PM 28.1833 -82.2167 164° South 168 193 9,000  Level Tampa TRACON
02:36PM 28.1500 -82.2167 180° South 167 192 9,000  Level Tampa TRACON
02:37PM 28.1000 -82.2000 164° South 167 192 9,000  Level Tampa TRACON
02:38PM 28.0500 -82.2000 180° South 168 193 9,000  Level Tampa TRACON
02:39PM 28.0167 -82.1833 156° South 167 192 9,000  Level Tampa TRACON
02:41PM 27.9289 -82.1769 176° South 150 173 9,000  Level Miami Center
02:42PM 27.8811 -82.1675 170° South 164 189 9,000  Level Miami Center
02:43PM 27.8378 -82.1586 170° South 169 194 9,000  Level Miami Center
02:44PM 27.7900 -82.1492 170° South 176 203 9,000  Level Miami Center
02:45PM 27.7444 -82.1425 173° South 176 203 9,000  Level Miami Center
02:46PM 27.6925 -82.1331 171° South 176 203 9,000  Level Miami Center
02:47PM 27.6469 -82.1239 170° South 176 203 9,000  Level Miami Center
02:48PM 27.6014 -82.1147 170° South 176 203 9,000 -240 Level Miami Center
02:49PM 27.5578 -82.1081 172° South 176 203 8,600 -480 Descending Miami Center
02:50PM 27.5019 -82.0986 171° South 181 208 8,100 -420 Descending Miami Center
02:51PM 27.4500 -82.0892 171° South 181 208 7,800 -360 Descending Miami Center
02:52PM 27.3983 -82.0797 171° South 181 208 7,400 -420 Descending Miami Center
02:53PM 27.3486 -82.0706 171° South 181 208 7,000 -240 Descending Miami Center
02:54PM 27.3008 -82.0614 170° South 181 208 7,000  Level Miami Center
02:55PM 27.2531 -82.0544 173° South 176 203 7,000  Level Miami Center
02:56PM 27.2053 -82.0453 170° South 176 203 7,000  Level Miami Center
02:57PM 27.1556 -82.0361 171° South 181 208 7,000  Level Miami Center
02:58PM 27.1100 -82.0294 173° South 176 203 7,000 -60 Level Miami Center
02:59PM 27.0622 -82.0181 168° South 176 203 6,900 -300 Descending Miami Center
03:00PM 27.0108 -82.0017 164° South 181 208 6,500 -420 Descending Miami Center
03:01PM 26.9636 -81.9739 152° Southeast 181 208 6,100 -300 Descending Miami Center
03:02PM 26.9167 -81.9486 154° Southeast 191 220 5,900 -300 Descending Miami Center
03:03PM 26.8717 -81.9233 153° Southeast 191 220 5,500 -780 Descending Miami Center
03:04PM 26.8300 -81.9147 170° South 191 220 4,400 -1,140 Descending Miami Center
03:06PM 26.7491 -81.9006 171° South  Level FlightAware Approximate
03:13PM 26.5833 -81.8500 156° South  Level FlightAware Approximate
03:14PM 26.5866 -81.8633 156° South  Level Estimated
03:15PM 26.5866 -81.8633 156° South  Level Estimated
03:16PM 26.5866 -81.8633 156° South  Level Estimated
03:17PM 26.5866 -81.8633 156° South  Level Estimated